APL Coral — WDF6832 — position and weather

sailwx.info

Track history (hours):
 
Tides and Currents Weather Stations Pressure Air Temp Water Temp Dewpoint Dewpoint Depression Visibility Wind Speed Wind Dir Waves Ship Positions

APL Coral

Owner: APL Maritime Ltd., Bethesda, MD. More information available from US FCC via Universal Licensing System and Coast Guard Vessel Documentation Center.

Last reported at 2015-Aug-04 01:23 UTC. Time now 2015-Aug-04 03:17 UTC.
Position N 34°39' W 075°28'.

Length 275 m; draft 12.6 m.

Type: Cargo ship. MMSI: 367478280.

Date/timePositionNaut miles runAvg speedWind from/ knotsBaromVisibWave heightAir tempDewpointWater temp
2015-Aug-04 01:23N 34°39' W 075°28'18815.9
2015-Aug-03 13:33N 37°38' W 074°17'2117.9
2015-Aug-03 12:24N 37°58' W 074°11'1517.9
2015-Aug-03 11:33N 38°13' W 074°07'1716.6
2015-Aug-03 10:33N 38°29' W 074°02'1818.1
2015-Aug-03 09:34N 38°47' W 073°58'2222.4
2015-Aug-03 08:33N 39°09' W 073°54'1414.4
2015-Aug-03 07:34N 39°23' W 073°53'1817.9
2015-Aug-03 06:33N 39°41' W 073°53'1817.9
2015-Aug-03 05:33N 39°59' W 073°51'1817.8
2015-Aug-03 04:33N 40°17' W 073°48'1211.8
2015-Aug-03 03:33N 40°28' W 073°52'1212.4
2015-Aug-03 02:33N 40°38' W 074°03'5 4.6
2015-Aug-03 01:33N 40°40' W 074°09'0 0.5
2015-Aug-03 00:33N 40°40' W 074°09'0 0.0
2015-Aug-02 23:32N 40°40' W 074°09'0 0.0
2015-Aug-02 22:32N 40°40' W 074°09'0 0.0
2015-Aug-02 21:32N 40°40' W 074°09'0 0.0
2015-Aug-02 20:32N 40°40' W 074°09'0 0.0
2015-Aug-02 19:32N 40°40' W 074°09'0 0.0
2015-Aug-02 18:32N 40°40' W 074°09'0 0.0
2015-Aug-02 17:32N 40°40' W 074°09'0 0.0
2015-Aug-02 16:32N 40°40' W 074°09'0 0.0
2015-Aug-02 15:32N 40°40' W 074°09'0 0.0
2015-Aug-02 14:32N 40°40' W 074°09'0 0.0
2015-Aug-02 13:32N 40°40' W 074°09'0 0.0
2015-Aug-02 12:32N 40°40' W 074°09'0 0.0
2015-Aug-02 11:32N 40°40' W 074°09'0 0.0
2015-Aug-02 10:32N 40°40' W 074°09'0 0.0
2015-Aug-02 09:32N 40°40' W 074°09'0 0.0
2015-Aug-02 08:32N 40°40' W 074°09'0 0.0
2015-Aug-02 07:32N 40°40' W 074°09'0 0.0
2015-Aug-02 06:32N 40°40' W 074°09'0 0.0
2015-Aug-02 05:32N 40°40' W 074°09'0 0.0
2015-Aug-02 04:32N 40°40' W 074°09'0 0.0
2015-Aug-02 03:32N 40°40' W 074°09'0 0.0
2015-Aug-02 02:32N 40°40' W 074°09'0 0.0
2015-Aug-02 01:32N 40°40' W 074°09'0 0.0
2015-Aug-02 00:32N 40°40' W 074°09'0 0.0
2015-Aug-01 23:32N 40°40' W 074°09'0 0.0
2015-Aug-01 22:32N 40°40' W 074°09'2 1.8
2015-Aug-01 21:33N 40°39' W 074°08'6 6.3
2015-Aug-01 20:33N 40°34' W 074°02'1111.5
2015-Aug-01 19:33N 40°27' W 073°49'1313.1
2015-Aug-01 18:33N 40°28' W 073°32'2317.6
2015-Aug-01 17:14N 40°30' W 073°02'1217.7
2015-Aug-01 16:33N 40°30' W 072°46'1817.5
2015-Aug-01 15:33N 40°30' W 072°23'1717.4
2015-Aug-01 14:34N 40°31' W 072°00'1717.4
2015-Aug-01 13:33N 40°32' W 071°37'1817.9
2015-Aug-01 12:33N 40°32' W 071°14'1818.3
2015-Aug-01 11:34N 40°33' W 070°50'1918.5
2015-Aug-01 10:34N 40°33' W 070°25'1918.8
2015-Aug-01 09:33N 40°34' W 070°01'1918.9
2015-Aug-01 08:33N 40°34' W 069°36'1919.0
2015-Aug-01 07:33N 40°35' W 069°11'1818.3
2015-Aug-01 06:34N 40°40' W 068°48'1817.5
2015-Aug-01 05:34N 40°46' W 068°26'1717.4
2015-Aug-01 04:33N 40°52' W 068°04'7117.0
2015-Aug-01 00:22N 41°32' W 066°46'22018.2
2015-Jul-31 12:18N 44°15' W 063°24'1516.0
2015-Jul-31 11:24N 44°29' W 063°30'911.1
2015-Jul-31 10:33N 44°38' W 063°33'4 3.9
2015-Jul-31 09:33N 44°40' W 063°38'0 0.0
2015-Jul-31 08:33N 44°40' W 063°38'0 0.0
2015-Jul-31 07:33N 44°40' W 063°38'0 0.0
2015-Jul-31 06:33N 44°40' W 063°38'0 0.0
2015-Jul-31 05:33N 44°40' W 063°38'0 0.0
2015-Jul-31 04:33N 44°40' W 063°38'0 0.0
2015-Jul-31 03:33N 44°40' W 063°38'0 0.0
2015-Jul-31 02:33N 44°40' W 063°38'0 0.0
2015-Jul-31 01:33N 44°40' W 063°38'0 0.0
2015-Jul-31 00:33N 44°40' W 063°38'0 0.0
2015-Jul-30 23:33N 44°40' W 063°38'0 0.0
2015-Jul-30 22:33N 44°40' W 063°38'0 0.0
2015-Jul-30 21:29N 44°40' W 063°38'  
2015-Jul-27 05:30N 41°30' W 030°60'9718.5
2015-Jul-27 00:17N 41°12' W 028°53'1419.1
2015-Jul-26 23:31N 41°09' W 028°34'4019.0
2015-Jul-26 21:24N 41°01' W 027°42'1618.9
2015-Jul-26 20:32N 40°58' W 027°21'11718.6
2015-Jul-26 14:14N 40°30' W 024°51'7218.5
2015-Jul-26 10:18N 40°12' W 023°18'34619.1
2015-Jul-25 16:10N 38°27' W 016°13'3118.9
2015-Jul-25 14:32N 38°17' W 015°36'4218.8
2015-Jul-25 12:20N 38°02' W 014°46'1618.9
2015-Jul-25 11:28N 37°56' W 014°27'1719.0
2015-Jul-25 10:33N 37°50' W 014°06'5818.9
2015-Jul-25 07:31N 37°29' W 012°59'2219.1
2015-Jul-25 06:23N 37°23' W 012°33'  
Track history (hours):
 
Tides and Currents Weather Stations Pressure Air Temp Water Temp Dewpoint Dewpoint Depression Visibility Wind Speed Wind Dir Waves Ship Positions

APL Coral

Owner: APL Maritime Ltd., Bethesda, MD. More information available from US FCC via Universal Licensing System and Coast Guard Vessel Documentation Center.

Last reported at 2015-Aug-04 01:23 UTC. Time now 2015-Aug-04 03:17 UTC.
Position N 34°39' W 075°28'.

Length 275 m; draft 12.6 m.

Type: Cargo ship. MMSI: 367478280.

Date/timePositionNaut miles runAvg speedWind from/ knotsBaromVisibWave heightAir tempDewpointWater temp
2015-Aug-04 01:23N 34°39' W 075°28'18815.9
2015-Aug-03 13:33N 37°38' W 074°17'2117.9
2015-Aug-03 12:24N 37°58' W 074°11'1517.9
2015-Aug-03 11:33N 38°13' W 074°07'1716.6
2015-Aug-03 10:33N 38°29' W 074°02'1818.1
2015-Aug-03 09:34N 38°47' W 073°58'2222.4
2015-Aug-03 08:33N 39°09' W 073°54'1414.4
2015-Aug-03 07:34N 39°23' W 073°53'1817.9
2015-Aug-03 06:33N 39°41' W 073°53'1817.9
2015-Aug-03 05:33N 39°59' W 073°51'1817.8
2015-Aug-03 04:33N 40°17' W 073°48'1211.8
2015-Aug-03 03:33N 40°28' W 073°52'1212.4
2015-Aug-03 02:33N 40°38' W 074°03'5 4.6
2015-Aug-03 01:33N 40°40' W 074°09'0 0.5
2015-Aug-03 00:33N 40°40' W 074°09'0 0.0
2015-Aug-02 23:32N 40°40' W 074°09'0 0.0
2015-Aug-02 22:32N 40°40' W 074°09'0 0.0
2015-Aug-02 21:32N 40°40' W 074°09'0 0.0
2015-Aug-02 20:32N 40°40' W 074°09'0 0.0
2015-Aug-02 19:32N 40°40' W 074°09'0 0.0
2015-Aug-02 18:32N 40°40' W 074°09'0 0.0
2015-Aug-02 17:32N 40°40' W 074°09'0 0.0
2015-Aug-02 16:32N 40°40' W 074°09'0 0.0
2015-Aug-02 15:32N 40°40' W 074°09'0 0.0
2015-Aug-02 14:32N 40°40' W 074°09'0 0.0
2015-Aug-02 13:32N 40°40' W 074°09'0 0.0
2015-Aug-02 12:32N 40°40' W 074°09'0 0.0
2015-Aug-02 11:32N 40°40' W 074°09'0 0.0
2015-Aug-02 10:32N 40°40' W 074°09'0 0.0
2015-Aug-02 09:32N 40°40' W 074°09'0 0.0
2015-Aug-02 08:32N 40°40' W 074°09'0 0.0
2015-Aug-02 07:32N 40°40' W 074°09'0 0.0
2015-Aug-02 06:32N 40°40' W 074°09'0 0.0
2015-Aug-02 05:32N 40°40' W 074°09'0 0.0
2015-Aug-02 04:32N 40°40' W 074°09'0 0.0
2015-Aug-02 03:32N 40°40' W 074°09'0 0.0
2015-Aug-02 02:32N 40°40' W 074°09'0 0.0
2015-Aug-02 01:32N 40°40' W 074°09'0 0.0
2015-Aug-02 00:32N 40°40' W 074°09'0 0.0
2015-Aug-01 23:32N 40°40' W 074°09'0 0.0
2015-Aug-01 22:32N 40°40' W 074°09'2 1.8
2015-Aug-01 21:33N 40°39' W 074°08'6 6.3
2015-Aug-01 20:33N 40°34' W 074°02'1111.5
2015-Aug-01 19:33N 40°27' W 073°49'1313.1
2015-Aug-01 18:33N 40°28' W 073°32'2317.6
2015-Aug-01 17:14N 40°30' W 073°02'1217.7
2015-Aug-01 16:33N 40°30' W 072°46'1817.5
2015-Aug-01 15:33N 40°30' W 072°23'1717.4
2015-Aug-01 14:34N 40°31' W 072°00'1717.4
2015-Aug-01 13:33N 40°32' W 071°37'1817.9
2015-Aug-01 12:33N 40°32' W 071°14'1818.3
2015-Aug-01 11:34N 40°33' W 070°50'1918.5
2015-Aug-01 10:34N 40°33' W 070°25'1918.8
2015-Aug-01 09:33N 40°34' W 070°01'1918.9
2015-Aug-01 08:33N 40°34' W 069°36'1919.0
2015-Aug-01 07:33N 40°35' W 069°11'1818.3
2015-Aug-01 06:34N 40°40' W 068°48'1817.5
2015-Aug-01 05:34N 40°46' W 068°26'1717.4
2015-Aug-01 04:33N 40°52' W 068°04'7117.0
2015-Aug-01 00:22N 41°32' W 066°46'22018.2
2015-Jul-31 12:18N 44°15' W 063°24'1516.0
2015-Jul-31 11:24N 44°29' W 063°30'911.1
2015-Jul-31 10:33N 44°38' W 063°33'4 3.9
2015-Jul-31 09:33N 44°40' W 063°38'0 0.0
2015-Jul-31 08:33N 44°40' W 063°38'0 0.0
2015-Jul-31 07:33N 44°40' W 063°38'0 0.0
2015-Jul-31 06:33N 44°40' W 063°38'0 0.0
2015-Jul-31 05:33N 44°40' W 063°38'0 0.0
2015-Jul-31 04:33N 44°40' W 063°38'0 0.0
2015-Jul-31 03:33N 44°40' W 063°38'0 0.0
2015-Jul-31 02:33N 44°40' W 063°38'0 0.0
2015-Jul-31 01:33N 44°40' W 063°38'0 0.0
2015-Jul-31 00:33N 44°40' W 063°38'0 0.0
2015-Jul-30 23:33N 44°40' W 063°38'0 0.0
2015-Jul-30 22:33N 44°40' W 063°38'0 0.0
2015-Jul-30 21:29N 44°40' W 063°38'  
2015-Jul-27 05:30N 41°30' W 030°60'9718.5
2015-Jul-27 00:17N 41°12' W 028°53'1419.1
2015-Jul-26 23:31N 41°09' W 028°34'4019.0
2015-Jul-26 21:24N 41°01' W 027°42'1618.9
2015-Jul-26 20:32N 40°58' W 027°21'11718.6
2015-Jul-26 14:14N 40°30' W 024°51'7218.5
2015-Jul-26 10:18N 40°12' W 023°18'34619.1
2015-Jul-25 16:10N 38°27' W 016°13'3118.9
2015-Jul-25 14:32N 38°17' W 015°36'4218.8
2015-Jul-25 12:20N 38°02' W 014°46'1618.9
2015-Jul-25 11:28N 37°56' W 014°27'1719.0
2015-Jul-25 10:33N 37°50' W 014°06'5818.9
2015-Jul-25 07:31N 37°29' W 012°59'2219.1
2015-Jul-25 06:23N 37°23' W 012°33'  

Dump ship's entire track history